sensor_id;sensor_type;location;lat;lon;timestamp;pressure;altitude;pressure_sealevel;temperature;humidity
63115;BME280;49208;50.874;6.466;2023-04-05T06:02:54;101135.72;;;-1.31;100.00
63115;BME280;49208;50.874;6.466;2023-04-05T06:05:20;101142.13;;;-1.18;100.00
63115;BME280;49208;50.874;6.466;2023-04-05T06:07:45;101130.31;;;-1.03;100.00
63115;BME280;49208;50.874;6.466;2023-04-05T06:10:11;101136.03;;;-0.79;100.00
63115;BME280;49208;50.874;6.466;2023-04-05T06:12:37;101130.72;;;-0.43;100.00
63115;BME280;49208;50.874;6.466;2023-04-05T06:15:03;101125.38;;;-0.04;99.51
63115;BME280;49208;50.874;6.466;2023-04-05T06:17:29;101130.38;;;0.33;98.27
63115;BME280;49208;50.874;6.466;2023-04-05T06:19:54;101122.34;;;0.75;96.13
63115;BME280;49208;50.874;6.466;2023-04-05T06:22:20;101125.75;;;1.32;92.68
63115;BME280;49208;50.874;6.466;2023-04-05T06:24:47;101118.97;;;2.29;91.58
63115;BME280;49208;50.874;6.466;2023-04-05T06:27:12;101122.44;;;3.58;87.52
63115;BME280;49208;50.874;6.466;2023-04-05T06:29:38;101123.44;;;5.16;80.81
63115;BME280;49208;50.874;6.466;2023-04-05T06:32:04;101123.41;;;6.79;76.18
63115;BME280;49208;50.874;6.466;2023-04-05T06:34:29;101115.34;;;8.33;66.90
63115;BME280;49208;50.874;6.466;2023-04-05T06:36:55;101111.81;;;9.35;58.73
63115;BME280;49208;50.874;6.466;2023-04-05T06:39:20;101109.31;;;10.11;55.00
63115;BME280;49208;50.874;6.466;2023-04-05T06:41:46;101103.38;;;11.07;53.14
63115;BME280;49208;50.874;6.466;2023-04-05T06:44:11;101106.00;;;12.01;47.91
63115;BME280;49208;50.874;6.466;2023-04-05T06:46:36;101100.47;;;12.64;44.18
63115;BME280;49208;50.874;6.466;2023-04-05T06:49:02;101099.84;;;13.58;42.84
63115;BME280;49208;50.874;6.466;2023-04-05T06:51:27;101100.00;;;14.22;42.51
63115;BME280;49208;50.874;6.466;2023-04-05T06:53:54;101099.13;;;14.66;41.14
63115;BME280;49208;50.874;6.466;2023-04-05T06:56:19;101098.31;;;14.86;40.84
63115;BME280;49208;50.874;6.466;2023-04-05T06:58:46;101099.31;;;15.43;39.42
63115;BME280;49208;50.874;6.466;2023-04-05T07:01:11;101096.03;;;15.57;35.63
63115;BME280;49208;50.874;6.466;2023-04-05T07:03:36;101099.63;;;15.95;36.53
63115;BME280;49208;50.874;6.466;2023-04-05T07:06:02;101108.84;;;15.90;34.89
63115;BME280;49208;50.874;6.466;2023-04-05T07:08:31;101099.06;;;16.44;31.73
63115;BME280;49208;50.874;6.466;2023-04-05T07:10:57;101093.31;;;15.96;32.40
63115;BME280;49208;50.874;6.466;2023-04-05T07:13:23;101097.75;;;16.16;33.89
63115;BME280;49208;50.874;6.466;2023-04-05T07:15:49;101097.66;;;16.54;35.44
63115;BME280;49208;50.874;6.466;2023-04-05T07:18:15;101099.38;;;17.43;33.38
63115;BME280;49208;50.874;6.466;2023-04-05T07:20:41;101091.63;;;17.70;34.16
63115;BME280;49208;50.874;6.466;2023-04-05T07:23:06;101091.97;;;18.29;31.28
63115;BME280;49208;50.874;6.466;2023-04-05T07:25:32;101086.22;;;18.19;32.40
63115;BME280;49208;50.874;6.466;2023-04-05T07:27:57;101086.75;;;17.61;31.82
63115;BME280;49208;50.874;6.466;2023-04-05T07:30:25;101088.13;;;17.52;33.41
63115;BME280;49208;50.874;6.466;2023-04-05T07:32:50;101081.97;;;18.31;31.94
63115;BME280;49208;50.874;6.466;2023-04-05T07:35:16;101086.41;;;18.78;32.39
63115;BME280;49208;50.874;6.466;2023-04-05T07:37:41;101084.59;;;18.63;31.85
63115;BME280;49208;50.874;6.466;2023-04-05T07:40:07;101085.22;;;18.98;31.92
63115;BME280;49208;50.874;6.466;2023-04-05T07:42:35;101091.72;;;19.24;31.33
63115;BME280;49208;50.874;6.466;2023-04-05T07:45:00;101085.38;;;19.54;30.77
63115;BME280;49208;50.874;6.466;2023-04-05T07:47:26;101087.00;;;19.42;30.78
63115;BME280;49208;50.874;6.466;2023-04-05T07:49:51;101093.66;;;19.79;30.96
63115;BME280;49208;50.874;6.466;2023-04-05T07:52:16;101092.13;;;19.47;28.32
63115;BME280;49208;50.874;6.466;2023-04-05T07:54:42;101088.28;;;19.51;31.81
63115;BME280;49208;50.874;6.466;2023-04-05T07:57:17;101096.19;;;19.97;30.28
63115;BME280;49208;50.874;6.466;2023-04-05T07:59:43;101103.78;;;20.46;29.79
63115;BME280;49208;50.874;6.466;2023-04-05T08:02:09;101096.94;;;19.99;30.06
63115;BME280;49208;50.874;6.466;2023-04-05T08:04:34;101097.56;;;20.98;27.64
63115;BME280;49208;50.874;6.466;2023-04-05T08:07:00;101096.16;;;21.06;26.53
63115;BME280;49208;50.874;6.466;2023-04-05T08:09:25;101102.06;;;20.85;30.23
63115;BME280;49208;50.874;6.466;2023-04-05T08:11:51;101098.31;;;21.01;29.77
63115;BME280;49208;50.874;6.466;2023-04-05T08:14:16;101099.47;;;20.56;30.65
63115;BME280;49208;50.874;6.466;2023-04-05T08:16:42;101109.41;;;20.83;28.90
63115;BME280;49208;50.874;6.466;2023-04-05T08:19:07;101096.69;;;20.98;28.55
63115;BME280;49208;50.874;6.466;2023-04-05T08:21:33;101102.75;;;20.34;29.75
63115;BME280;49208;50.874;6.466;2023-04-05T08:23:58;101096.66;;;20.85;27.49
63115;BME280;49208;50.874;6.466;2023-04-05T08:26:24;101099.59;;;20.95;30.02
63115;BME280;49208;50.874;6.466;2023-04-05T08:28:49;101090.38;;;19.46;27.27
63115;BME280;49208;50.874;6.466;2023-04-05T08:31:16;101089.28;;;20.06;31.27
63115;BME280;49208;50.874;6.466;2023-04-05T08:33:41;101086.41;;;20.09;30.49
63115;BME280;49208;50.874;6.466;2023-04-05T08:36:08;101094.06;;;19.73;30.29
63115;BME280;49208;50.874;6.466;2023-04-05T08:38:34;101093.88;;;19.91;28.60
63115;BME280;49208;50.874;6.466;2023-04-05T08:41:27;101091.53;;;19.56;28.58
63115;BME280;49208;50.874;6.466;2023-04-05T08:44:01;101084.72;;;18.75;30.45
63115;BME280;49208;50.874;6.466;2023-04-05T08:46:29;101086.09;;;18.52;35.18
63115;BME280;49208;50.874;6.466;2023-04-05T08:48:56;101087.44;;;18.13;35.16
63115;BME280;49208;50.874;6.466;2023-04-05T08:51:23;101082.69;;;17.36;33.14
63115;BME280;49208;50.874;6.466;2023-04-05T08:53:49;101087.47;;;16.78;37.16
63115;BME280;49208;50.874;6.466;2023-04-05T08:56:19;101077.75;;;16.76;33.32
63115;BME280;49208;50.874;6.466;2023-04-05T08:58:52;101083.44;;;15.97;36.16
63115;BME280;49208;50.874;6.466;2023-04-05T09:01:22;101084.19;;;15.61;38.63
63115;BME280;49208;50.874;6.466;2023-04-05T09:03:49;101085.91;;;15.43;39.39
63115;BME280;49208;50.874;6.466;2023-04-05T09:06:17;101077.78;;;15.05;38.34
63115;BME280;49208;50.874;6.466;2023-04-05T09:08:43;101085.47;;;14.50;39.51
63115;BME280;49208;50.874;6.466;2023-04-05T09:11:10;101085.09;;;14.15;38.56
63115;BME280;49208;50.874;6.466;2023-04-05T09:13:36;101090.13;;;13.79;39.23
63115;BME280;49208;50.874;6.466;2023-04-05T09:16:01;101088.81;;;13.42;38.79
63115;BME280;49208;50.874;6.466;2023-04-05T09:18:27;101090.28;;;13.50;38.27
63115;BME280;49208;50.874;6.466;2023-04-05T09:21:00;101082.59;;;13.16;37.06
63115;BME280;49208;50.874;6.466;2023-04-05T09:23:27;101088.81;;;12.66;37.15
63115;BME280;49208;50.874;6.466;2023-04-05T09:25:52;101086.56;;;12.26;41.86
63115;BME280;49208;50.874;6.466;2023-04-05T09:28:18;101087.16;;;12.62;43.30
63115;BME280;49208;50.874;6.466;2023-04-05T09:30:46;101084.34;;;12.92;39.54
63115;BME280;49208;50.874;6.466;2023-04-05T09:33:15;101089.13;;;12.82;37.10
63115;BME280;49208;50.874;6.466;2023-04-05T09:35:43;101083.25;;;12.72;38.87
63115;BME280;49208;50.874;6.466;2023-04-05T09:38:08;101088.84;;;12.65;37.63
63115;BME280;49208;50.874;6.466;2023-04-05T09:43:06;101089.91;;;12.86;38.54
63115;BME280;49208;50.874;6.466;2023-04-05T09:45:37;101085.72;;;13.04;38.75
63115;BME280;49208;50.874;6.466;2023-04-05T09:48:03;101090.13;;;12.53;36.66
63115;BME280;49208;50.874;6.466;2023-04-05T09:50:28;101085.47;;;12.60;37.72
63115;BME280;49208;50.874;6.466;2023-04-05T09:53:11;101087.81;;;12.42;37.79
63115;BME280;49208;50.874;6.466;2023-04-05T09:55:41;101080.66;;;12.43;38.57
63115;BME280;49208;50.874;6.466;2023-04-05T09:58:30;101085.19;;;12.67;43.70
63115;BME280;49208;50.874;6.466;2023-04-05T10:00:56;101082.22;;;12.77;38.44
63115;BME280;49208;50.874;6.466;2023-04-05T10:03:24;101077.25;;;12.66;37.98
63115;BME280;49208;50.874;6.466;2023-04-05T10:05:54;101085.47;;;12.60;40.35
63115;BME280;49208;50.874;6.466;2023-04-05T10:08:20;101072.03;;;12.61;39.14
63115;BME280;49208;50.874;6.466;2023-04-05T10:10:49;101069.22;;;12.66;36.67
63115;BME280;49208;50.874;6.466;2023-04-05T10:13:16;101068.63;;;12.58;39.28
63115;BME280;49208;50.874;6.466;2023-04-05T10:15:45;101067.94;;;12.51;37.57
63115;BME280;49208;50.874;6.466;2023-04-05T10:18:17;101061.16;;;12.67;39.11
63115;BME280;49208;50.874;6.466;2023-04-05T10:20:48;101068.00;;;12.23;35.91
63115;BME280;49208;50.874;6.466;2023-04-05T10:23:23;101070.81;;;12.45;38.41
63115;BME280;49208;50.874;6.466;2023-04-05T10:28:32;101057.97;;;12.29;36.46
63115;BME280;49208;50.874;6.466;2023-04-05T10:31:21;101060.31;;;12.39;37.82
63115;BME280;49208;50.874;6.466;2023-04-05T10:33:54;101061.50;;;12.30;37.77
63115;BME280;49208;50.874;6.466;2023-04-05T10:36:49;101049.25;;;12.51;37.84
63115;BME280;49208;50.874;6.466;2023-04-05T10:39:34;101055.19;;;12.59;36.89
63115;BME280;49208;50.874;6.466;2023-04-05T10:44:35;101043.16;;;12.47;37.44
63115;BME280;49208;50.874;6.466;2023-04-05T10:47:03;101049.81;;;12.34;35.72
63115;BME280;49208;50.874;6.466;2023-04-05T10:49:37;101037.69;;;12.50;35.72
63115;BME280;49208;50.874;6.466;2023-04-05T10:52:04;101043.41;;;12.40;36.69
63115;BME280;49208;50.874;6.466;2023-04-05T10:54:33;101040.38;;;12.76;38.99
63115;BME280;49208;50.874;6.466;2023-04-05T10:57:03;101035.66;;;12.84;38.54
63115;BME280;49208;50.874;6.466;2023-04-05T10:59:30;101040.81;;;12.63;38.42
63115;BME280;49208;50.874;6.466;2023-04-05T11:01:56;101028.78;;;12.51;35.96
63115;BME280;49208;50.874;6.466;2023-04-05T11:04:22;101043.19;;;12.46;35.95
63115;BME280;49208;50.874;6.466;2023-04-05T11:09:37;101025.00;;;12.57;38.79
63115;BME280;49208;50.874;6.466;2023-04-05T11:12:04;101018.59;;;12.09;35.31
63115;BME280;49208;50.874;6.466;2023-04-05T11:14:36;101022.50;;;12.52;36.84
63115;BME280;49208;50.874;6.466;2023-04-05T11:17:33;101021.19;;;12.39;33.86
63115;BME280;49208;50.874;6.466;2023-04-05T11:20:03;101020.97;;;12.45;34.38
63115;BME280;49208;50.874;6.466;2023-04-05T11:22:29;101016.94;;;12.59;38.86
63115;BME280;49208;50.874;6.466;2023-04-05T11:24:57;101007.41;;;12.77;35.16
63115;BME280;49208;50.874;6.466;2023-04-05T11:27:30;101011.03;;;12.49;36.68
63115;BME280;49208;50.874;6.466;2023-04-05T11:30:00;101011.38;;;12.13;36.18
63115;BME280;49208;50.874;6.466;2023-04-05T11:32:43;101008.84;;;12.62;38.14
63115;BME280;49208;50.874;6.466;2023-04-05T11:35:14;101005.38;;;12.83;35.83
63115;BME280;49208;50.874;6.466;2023-04-05T11:38:05;101001.94;;;12.80;38.22
63115;BME280;49208;50.874;6.466;2023-04-05T11:40:34;101000.66;;;12.66;36.24
63115;BME280;49208;50.874;6.466;2023-04-05T11:43:07;100994.56;;;12.86;36.45
63115;BME280;49208;50.874;6.466;2023-04-05T11:45:38;101000.44;;;12.72;34.19
63115;BME280;49208;50.874;6.466;2023-04-05T11:48:05;100987.59;;;12.57;34.49
63115;BME280;49208;50.874;6.466;2023-04-05T11:50:32;100987.91;;;12.49;37.01
63115;BME280;49208;50.874;6.466;2023-04-05T11:55:32;100982.84;;;12.40;35.57
63115;BME280;49208;50.874;6.466;2023-04-05T11:57:58;100991.31;;;11.71;36.83
63115;BME280;49208;50.874;6.466;2023-04-05T12:00:23;100986.09;;;11.97;36.63
63115;BME280;49208;50.874;6.466;2023-04-05T12:02:48;100988.59;;;12.01;36.19
63115;BME280;49208;50.874;6.466;2023-04-05T12:05:14;100982.06;;;12.11;37.11
63115;BME280;49208;50.874;6.466;2023-04-05T12:07:39;100977.44;;;12.43;38.87
63115;BME280;49208;50.874;6.466;2023-04-05T12:10:07;100968.47;;;12.44;37.08
63115;BME280;49208;50.874;6.466;2023-04-05T12:12:35;100962.38;;;12.41;37.97
63115;BME280;49208;50.874;6.466;2023-04-05T12:15:01;100964.19;;;12.40;39.72
63115;BME280;49208;50.874;6.466;2023-04-05T12:17:44;100956.56;;;12.54;39.94
63115;BME280;49208;50.874;6.466;2023-04-05T12:20:11;100956.25;;;12.64;38.05
63115;BME280;49208;50.874;6.466;2023-04-05T12:22:38;100948.91;;;12.69;36.76
63115;BME280;49208;50.874;6.466;2023-04-05T12:25:05;100954.44;;;12.64;35.34
63115;BME280;49208;50.874;6.466;2023-04-05T12:27:30;100959.66;;;12.42;35.87
63115;BME280;49208;50.874;6.466;2023-04-05T12:30:18;100949.03;;;12.41;37.06
63115;BME280;49208;50.874;6.466;2023-04-05T12:35:13;100951.25;;;12.28;36.50
63115;BME280;49208;50.874;6.466;2023-04-05T12:37:40;100951.16;;;12.56;37.78
63115;BME280;49208;50.874;6.466;2023-04-05T12:40:06;100944.34;;;12.72;35.92
63115;BME280;49208;50.874;6.466;2023-04-05T12:42:32;100941.06;;;12.64;35.91
63115;BME280;49208;50.874;6.466;2023-04-05T12:45:10;100941.25;;;12.60;37.07
63115;BME280;49208;50.874;6.466;2023-04-05T12:47:47;100937.38;;;12.43;33.45
63115;BME280;49208;50.874;6.466;2023-04-05T12:50:14;100936.28;;;12.49;35.47
63115;BME280;49208;50.874;6.466;2023-04-05T12:53:00;100937.31;;;12.45;34.70
63115;BME280;49208;50.874;6.466;2023-04-05T12:55:27;100933.72;;;12.46;34.12
63115;BME280;49208;50.874;6.466;2023-04-05T12:57:55;100931.66;;;12.54;35.28
63115;BME280;49208;50.874;6.466;2023-04-05T13:00:23;100919.56;;;12.44;33.64
63115;BME280;49208;50.874;6.466;2023-04-05T13:02:51;100926.41;;;12.26;33.72
63115;BME280;49208;50.874;6.466;2023-04-05T13:05:24;100924.03;;;12.43;32.37
63115;BME280;49208;50.874;6.466;2023-04-05T13:07:49;100922.69;;;12.55;32.40
63115;BME280;49208;50.874;6.466;2023-04-05T13:10:16;100914.91;;;12.49;32.72
63115;BME280;49208;50.874;6.466;2023-04-05T13:12:41;100917.44;;;12.53;34.71
63115;BME280;49208;50.874;6.466;2023-04-05T13:15:08;100908.31;;;12.59;32.61
63115;BME280;49208;50.874;6.466;2023-04-05T13:17:33;100906.59;;;12.58;32.07
63115;BME280;49208;50.874;6.466;2023-04-05T13:19:58;100901.09;;;12.12;33.34
63115;BME280;49208;50.874;6.466;2023-04-05T13:22:24;100903.81;;;11.83;32.26
63115;BME280;49208;50.874;6.466;2023-04-05T13:24:49;100890.06;;;11.97;32.46
63115;BME280;49208;50.874;6.466;2023-04-05T13:27:16;100889.84;;;12.03;32.70
63115;BME280;49208;50.874;6.466;2023-04-05T13:29:41;100900.25;;;12.10;32.82
63115;BME280;49208;50.874;6.466;2023-04-05T13:32:06;100891.53;;;12.05;33.93
63115;BME280;49208;50.874;6.466;2023-04-05T13:34:32;100886.75;;;12.15;31.80
63115;BME280;49208;50.874;6.466;2023-04-05T13:36:57;100889.69;;;12.07;31.93
63115;BME280;49208;50.874;6.466;2023-04-05T13:39:22;100882.50;;;12.09;32.74
63115;BME280;49208;50.874;6.466;2023-04-05T13:41:48;100889.22;;;12.21;33.13
63115;BME280;49208;50.874;6.466;2023-04-05T13:44:13;100888.38;;;12.19;30.11
63115;BME280;49208;50.874;6.466;2023-04-05T13:46:38;100885.50;;;12.25;30.04
63115;BME280;49208;50.874;6.466;2023-04-05T13:49:04;100884.50;;;12.28;31.90
63115;BME280;49208;50.874;6.466;2023-04-05T13:51:29;100883.44;;;12.33;31.67
63115;BME280;49208;50.874;6.466;2023-04-05T13:53:58;100877.16;;;12.34;31.55
63115;BME280;49208;50.874;6.466;2023-04-05T13:56:23;100868.09;;;12.39;31.42
63115;BME280;49208;50.874;6.466;2023-04-05T13:58:49;100863.34;;;12.23;31.07
63115;BME280;49208;50.874;6.466;2023-04-05T14:01:15;100866.19;;;12.19;32.89
63115;BME280;49208;50.874;6.466;2023-04-05T14:03:40;100859.16;;;12.16;31.48
63115;BME280;49208;50.874;6.466;2023-04-05T14:06:07;100853.66;;;11.96;30.74
63115;BME280;49208;50.874;6.466;2023-04-05T14:08:32;100853.97;;;11.85;30.37
63115;BME280;49208;50.874;6.466;2023-04-05T14:10:58;100845.66;;;11.96;33.15
63115;BME280;49208;50.874;6.466;2023-04-05T14:13:23;100843.56;;;12.04;32.86
63115;BME280;49208;50.874;6.466;2023-04-05T14:15:49;100844.91;;;11.90;31.73
63115;BME280;49208;50.874;6.466;2023-04-05T14:18:14;100844.19;;;11.85;31.66
63115;BME280;49208;50.874;6.466;2023-04-05T14:20:40;100839.38;;;11.97;31.77
63115;BME280;49208;50.874;6.466;2023-04-05T14:23:05;100835.63;;;11.76;30.53
63115;BME280;49208;50.874;6.466;2023-04-05T14:25:31;100832.03;;;11.77;32.53
63115;BME280;49208;50.874;6.466;2023-04-05T14:27:56;100825.88;;;11.75;32.46
63115;BME280;49208;50.874;6.466;2023-04-05T14:30:21;100822.72;;;11.90;32.05
63115;BME280;49208;50.874;6.466;2023-04-05T14:32:47;100833.03;;;11.99;32.83
63115;BME280;49208;50.874;6.466;2023-04-05T14:35:12;100826.25;;;11.90;31.77
63115;BME280;49208;50.874;6.466;2023-04-05T14:37:37;100824.31;;;11.96;32.83
63115;BME280;49208;50.874;6.466;2023-04-05T14:40:03;100825.22;;;11.95;31.85
63115;BME280;49208;50.874;6.466;2023-04-05T14:42:29;100823.06;;;12.06;32.38
63115;BME280;49208;50.874;6.466;2023-04-05T14:44:54;100823.97;;;12.05;31.85
63115;BME280;49208;50.874;6.466;2023-04-05T14:47:19;100816.34;;;11.94;34.69
63115;BME280;49208;50.874;6.466;2023-04-05T14:49:45;100815.41;;;11.95;34.19
63115;BME280;49208;50.874;6.466;2023-04-05T14:52:11;100814.84;;;11.85;33.17
63115;BME280;49208;50.874;6.466;2023-04-05T14:54:36;100815.56;;;11.90;33.62
63115;BME280;49208;50.874;6.466;2023-04-05T14:57:02;100812.63;;;11.98;32.56
63115;BME280;49208;50.874;6.466;2023-04-05T14:59:27;100811.78;;;11.98;33.31
63115;BME280;49208;50.874;6.466;2023-04-05T15:01:53;100811.88;;;11.95;31.78
63115;BME280;49208;50.874;6.466;2023-04-05T15:04:18;100812.09;;;11.88;30.97
63115;BME280;49208;50.874;6.466;2023-04-05T15:06:44;100812.81;;;11.67;31.11
63115;BME280;49208;50.874;6.466;2023-04-05T15:09:09;100813.09;;;11.58;31.35
63115;BME280;49208;50.874;6.466;2023-04-05T15:11:37;100810.59;;;11.53;32.29
63115;BME280;49208;50.874;6.466;2023-04-05T15:14:04;100806.66;;;11.38;32.64
63115;BME280;49208;50.874;6.466;2023-04-05T15:16:29;100803.75;;;11.46;34.69
63115;BME280;49208;50.874;6.466;2023-04-05T15:18:55;100799.84;;;11.56;37.24
63115;BME280;49208;50.874;6.466;2023-04-05T15:21:22;100803.25;;;11.60;38.04
63115;BME280;49208;50.874;6.466;2023-04-05T15:23:48;100799.47;;;11.67;37.38
63115;BME280;49208;50.874;6.466;2023-04-05T15:26:14;100804.59;;;11.73;35.33
63115;BME280;49208;50.874;6.466;2023-04-05T15:28:39;100798.19;;;11.79;35.02
63115;BME280;49208;50.874;6.466;2023-04-05T15:31:04;100796.59;;;11.73;34.16
63115;BME280;49208;50.874;6.466;2023-04-05T15:33:30;100802.91;;;11.70;34.76
63115;BME280;49208;50.874;6.466;2023-04-05T15:35:55;100796.91;;;11.64;33.21
63115;BME280;49208;50.874;6.466;2023-04-05T15:38:21;100791.94;;;11.26;32.19
63115;BME280;49208;50.874;6.466;2023-04-05T15:40:46;100789.22;;;11.28;31.49
63115;BME280;49208;50.874;6.466;2023-04-05T15:43:13;100789.22;;;11.28;33.51
63115;BME280;49208;50.874;6.466;2023-04-05T15:45:39;100793.84;;;11.23;34.71
63115;BME280;49208;50.874;6.466;2023-04-05T15:48:04;100786.13;;;11.13;33.98
63115;BME280;49208;50.874;6.466;2023-04-05T15:50:30;100779.72;;;11.21;35.94
63115;BME280;49208;50.874;6.466;2023-04-05T15:52:55;100780.59;;;11.20;34.83
63115;BME280;49208;50.874;6.466;2023-04-05T15:55:21;100778.81;;;11.20;33.62
63115;BME280;49208;50.874;6.466;2023-04-05T15:57:46;100775.31;;;11.18;34.23
63115;BME280;49208;50.874;6.466;2023-04-05T16:00:13;100782.41;;;11.19;33.70
63115;BME280;49208;50.874;6.466;2023-04-05T16:02:39;100771.09;;;11.12;34.40
63115;BME280;49208;50.874;6.466;2023-04-05T16:05:05;100772.00;;;11.11;33.56
63115;BME280;49208;50.874;6.466;2023-04-05T16:07:30;100771.22;;;11.08;34.16
63115;BME280;49208;50.874;6.466;2023-04-05T16:09:55;100773.00;;;11.07;35.00
63115;BME280;49208;50.874;6.466;2023-04-05T16:12:22;100768.63;;;11.06;34.72
63115;BME280;49208;50.874;6.466;2023-04-05T16:14:47;100768.56;;;11.08;37.17
63115;BME280;49208;50.874;6.466;2023-04-05T16:17:12;100772.38;;;10.99;37.30
63115;BME280;49208;50.874;6.466;2023-04-05T16:19:38;100768.16;;;10.94;36.62
63115;BME280;49208;50.874;6.466;2023-04-05T16:22:03;100772.53;;;10.95;37.83
63115;BME280;49208;50.874;6.466;2023-04-05T16:24:30;100771.69;;;10.94;36.63
63115;BME280;49208;50.874;6.466;2023-04-05T16:26:57;100767.34;;;10.91;36.96
63115;BME280;49208;50.874;6.466;2023-04-05T16:29:22;100772.94;;;10.82;34.87
63115;BME280;49208;50.874;6.466;2023-04-05T16:31:48;100766.94;;;10.76;34.91
63115;BME280;49208;50.874;6.466;2023-04-05T16:34:13;100761.84;;;10.68;35.99
63115;BME280;49208;50.874;6.466;2023-04-05T16:36:39;100763.69;;;10.66;36.00
63115;BME280;49208;50.874;6.466;2023-04-05T16:39:05;100765.72;;;10.56;34.75
63115;BME280;49208;50.874;6.466;2023-04-05T16:41:33;100768.47;;;10.55;35.95
63115;BME280;49208;50.874;6.466;2023-04-05T16:43:58;100757.06;;;10.49;35.57
63115;BME280;49208;50.874;6.466;2023-04-05T16:46:24;100767.16;;;10.40;35.55
63115;BME280;49208;50.874;6.466;2023-04-05T16:48:50;100768.22;;;10.32;35.70
63115;BME280;49208;50.874;6.466;2023-04-05T16:51:15;100770.13;;;10.27;35.34
63115;BME280;49208;50.874;6.466;2023-04-05T16:53:41;100770.38;;;10.18;35.58
63115;BME280;49208;50.874;6.466;2023-04-05T16:56:06;100767.00;;;10.13;36.33
63115;BME280;49208;50.874;6.466;2023-04-05T16:58:31;100767.09;;;10.08;36.34
63115;BME280;49208;50.874;6.466;2023-04-05T17:00:57;100762.81;;;10.04;37.34
63115;BME280;49208;50.874;6.466;2023-04-05T17:03:24;100770.06;;;9.98;37.25
63115;BME280;49208;50.874;6.466;2023-04-05T17:05:50;100769.53;;;9.85;38.03
63115;BME280;49208;50.874;6.466;2023-04-05T17:08:15;100767.00;;;9.80;37.94
63115;BME280;49208;50.874;6.466;2023-04-05T17:10:41;100766.38;;;9.70;38.59
63115;BME280;49208;50.874;6.466;2023-04-05T17:13:06;100760.38;;;9.64;38.52
63115;BME280;49208;50.874;6.466;2023-04-05T17:15:31;100764.97;;;9.57;39.69
63115;BME280;49208;50.874;6.466;2023-04-05T17:17:57;100758.97;;;9.50;39.08
63115;BME280;49208;50.874;6.466;2023-04-05T17:20:22;100762.59;;;9.46;39.97
63115;BME280;49208;50.874;6.466;2023-04-05T17:22:48;100769.09;;;9.35;39.55
63115;BME280;49208;50.874;6.466;2023-04-05T17:25:14;100762.13;;;9.29;39.47
63115;BME280;49208;50.874;6.466;2023-04-05T17:27:39;100760.63;;;9.19;39.46
63115;BME280;49208;50.874;6.466;2023-04-05T17:30:05;100758.09;;;9.14;40.60
63115;BME280;49208;50.874;6.466;2023-04-05T17:32:31;100760.91;;;9.08;40.47
63115;BME280;49208;50.874;6.466;2023-04-05T17:34:59;100765.59;;;8.97;41.21
63115;BME280;49208;50.874;6.466;2023-04-05T17:37:24;100764.81;;;8.92;41.23
63115;BME280;49208;50.874;6.466;2023-04-05T17:39:50;100764.16;;;8.82;41.36
63115;BME280;49208;50.874;6.466;2023-04-05T17:42:15;100760.75;;;8.77;41.77
63115;BME280;49208;50.874;6.466;2023-04-05T17:44:41;100761.84;;;8.68;41.86
63115;BME280;49208;50.874;6.466;2023-04-05T17:47:07;100763.84;;;8.57;42.53
63115;BME280;49208;50.874;6.466;2023-04-05T17:49:32;100768.50;;;8.47;42.49
63115;BME280;49208;50.874;6.466;2023-04-05T17:52:00;100766.09;;;8.35;43.86
63115;BME280;49208;50.874;6.466;2023-04-05T17:54:25;100763.56;;;8.27;42.49
63115;BME280;49208;50.874;6.466;2023-04-05T17:56:50;100760.16;;;8.22;43.27
63115;BME280;49208;50.874;6.466;2023-04-05T17:59:16;100763.94;;;8.10;47.03
63115;BME280;49208;50.874;6.466;2023-04-05T18:01:41;100766.88;;;7.95;47.99
63115;BME280;49208;50.874;6.466;2023-04-05T18:04:07;100768.13;;;7.77;48.33
63115;BME280;49208;50.874;6.466;2023-04-05T18:06:32;100760.50;;;7.60;49.77
63115;BME280;49208;50.874;6.466;2023-04-05T18:08:58;100768.75;;;7.43;50.48
63115;BME280;49208;50.874;6.466;2023-04-05T18:11:23;100767.25;;;7.26;52.03
63115;BME280;49208;50.874;6.466;2023-04-05T18:13:49;100766.56;;;7.14;53.28
63115;BME280;49208;50.874;6.466;2023-04-05T18:16:14;100759.75;;;6.99;53.76
63115;BME280;49208;50.874;6.466;2023-04-05T18:18:40;100765.25;;;6.85;55.00
63115;BME280;49208;50.874;6.466;2023-04-05T18:21:05;100762.81;;;6.71;56.03
63115;BME280;49208;50.874;6.466;2023-04-05T18:23:31;100764.75;;;6.58;56.38
63115;BME280;49208;50.874;6.466;2023-04-05T18:25:56;100772.88;;;6.44;56.53
63115;BME280;49208;50.874;6.466;2023-04-05T18:28:21;100768.63;;;6.33;56.64
63115;BME280;49208;50.874;6.466;2023-04-05T18:30:47;100766.16;;;6.19;57.10
63115;BME280;49208;50.874;6.466;2023-04-05T18:33:15;100767.19;;;6.07;57.16
63115;BME280;49208;50.874;6.466;2023-04-05T18:35:40;100776.97;;;5.97;58.05
63115;BME280;49208;50.874;6.466;2023-04-05T18:38:05;100781.47;;;5.86;58.90
63115;BME280;49208;50.874;6.466;2023-04-05T18:40:31;100774.53;;;5.76;58.03
63115;BME280;49208;50.874;6.466;2023-04-05T18:42:57;100780.81;;;5.64;59.12
63115;BME280;49208;50.874;6.466;2023-04-05T18:45:22;100782.69;;;5.54;58.86
63115;BME280;49208;50.874;6.466;2023-04-05T18:47:48;100783.63;;;5.45;59.00
63115;BME280;49208;50.874;6.466;2023-04-05T18:50:14;100780.22;;;5.36;59.65
63115;BME280;49208;50.874;6.466;2023-04-05T18:52:40;100788.19;;;5.26;60.75
63115;BME280;49208;50.874;6.466;2023-04-05T18:55:06;100788.28;;;5.17;61.21
63115;BME280;49208;50.874;6.466;2023-04-05T18:57:32;100790.97;;;5.08;61.63
63115;BME280;49208;50.874;6.466;2023-04-05T18:59:59;100795.44;;;5.00;61.68
63115;BME280;49208;50.874;6.466;2023-04-05T19:02:25;100794.63;;;4.92;62.21
63115;BME280;49208;50.874;6.466;2023-04-05T19:04:50;100796.41;;;4.85;62.97
63115;BME280;49208;50.874;6.466;2023-04-05T19:07:16;100792.09;;;4.78;64.06
63115;BME280;49208;50.874;6.466;2023-04-05T19:09:41;100799.16;;;4.71;64.39